Time;durP1;ratioP1;P1;durP2;ratioP2;P2;SDS_P1;SDS_P2;PMS_P1;PMS_P2;Temp;Humidity;BMP_temperature;BMP_pressure;BME280_temperature;BME280_humidity;BME280_pressure;Samples;Min_cycle;Max_cycle;Signal;HPM_P1;HPM_P2
2023/01/13 00:02:55;;;;;;;2.53;2.33;;;;;;;7.70;100.00;99851.75;5085322;56;1137083;-73
2023/01/13 00:08:03;;;;;;;6.20;3.20;;;;;;;7.66;100.00;99851.62;5032332;58;1136778;-78
2023/01/13 00:13:12;;;;;;;6.63;2.10;;;;;;;7.63;100.00;99842.67;5020652;56;1136691;-78
2023/01/13 00:18:18;;;;;;;5.00;3.17;;;;;;;7.62;100.00;99843.63;5058156;58;1137003;-74
2023/01/13 00:23:24;;;;;;;3.43;2.00;;;;;;;7.61;100.00;99837.52;5039133;57;1136756;-77
2023/01/13 00:28:30;;;;;;;3.73;2.53;;;;;;;7.60;100.00;99827.11;5038956;57;1136839;-84
2023/01/13 00:33:36;;;;;;;7.13;2.07;;;;;;;7.62;100.00;99830.46;5033323;58;1137054;-79
2023/01/13 00:38:43;;;;;;;3.90;2.17;;;;;;;7.64;100.00;99830.68;4987555;57;1136843;-72
2023/01/13 00:43:50;;;;;;;2.73;2.00;;;;;;;7.63;100.00;99826.88;5027048;58;1136796;-75
2023/01/13 00:48:55;;;;;;;3.83;2.53;;;;;;;7.62;100.00;99820.78;4980492;57;1136776;-76
2023/01/13 00:54:01;;;;;;;3.40;1.87;;;;;;;7.65;100.00;99811.30;5039388;58;1137016;-76
2023/01/13 00:59:10;;;;;;;4.13;2.70;;;;;;;7.68;100.00;99814.19;5027180;58;1136706;-79
2023/01/13 01:04:16;;;;;;;2.07;1.77;;;;;;;7.72;100.00;99802.47;5026895;58;1136677;-76
2023/01/13 01:09:22;;;;;;;4.37;2.35;;;;;;;7.73;100.00;99804.15;5040508;58;1137667;-80
2023/01/13 01:14:28;;;;;;;2.83;1.87;;;;;;;7.75;100.00;99798.30;5024861;57;1136684;-76
2023/01/13 01:19:36;;;;;;;3.23;1.77;;;;;;;7.76;100.00;99795.55;5105341;55;1136678;-78
2023/01/13 01:24:41;;;;;;;2.03;1.67;;;;;;;7.78;100.00;99793.27;5179006;55;1137149;-79
2023/01/13 01:29:48;;;;;;;3.60;2.13;;;;;;;7.80;100.00;99780.80;5227450;55;1136728;-83
2023/01/13 01:34:53;;;;;;;2.63;1.63;;;;;;;7.80;100.00;99780.80;5186821;55;1136549;-75
2023/01/13 01:39:59;;;;;;;3.70;1.70;;;;;;;7.81;100.00;99766.69;5198633;55;1136703;-77
2023/01/13 01:45:21;;;;;;;2.13;1.73;;;;;;;7.82;100.00;99773.16;5226206;55;1137212;-85
2023/01/13 01:50:30;;;;;;;3.35;1.80;;;;;;;7.83;100.00;99759.52;5200075;55;1136854;-77
2023/01/13 01:55:38;;;;;;;1.80;1.23;;;;;;;7.83;100.00;99762.14;5247199;55;1136646;-80
2023/01/13 02:00:44;;;;;;;4.40;1.70;;;;;;;7.83;100.00;99757.72;5282250;55;1136996;-76
2023/01/13 02:05:51;;;;;;;2.80;2.50;;;;;;;7.83;100.00;99756.87;5224991;55;1136946;-81
2023/01/13 02:10:56;;;;;;;2.63;1.60;;;;;;;7.83;100.00;99747.19;5189581;56;1136623;-76
2023/01/13 02:16:15;;;;;;;2.03;1.87;;;;;;;7.85;100.00;99742.64;5066529;56;1136948;-78
2023/01/13 02:21:48;;;;;;;1.43;1.33;;;;;;;7.85;100.00;99747.07;5158277;56;1136725;-77
2023/01/13 02:27:17;;;;;;;3.13;1.70;;;;;;;7.85;100.00;99729.48;5190678;56;1136793;-80
2023/01/13 02:32:27;;;;;;;5.40;2.70;;;;;;;7.85;100.00;99732.11;5107495;56;1136788;-72
2023/01/13 02:37:37;;;;;;;2.43;1.70;;;;;;;7.86;100.00;99725.05;5163140;56;1136994;-76
2023/01/13 02:48:35;;;;;;;1.93;1.83;;;;;;;7.84;100.00;99718.59;5029595;57;1136852;-75
2023/01/13 02:54:09;;;;;;;1.55;1.45;;;;;;;7.83;100.00;99726.61;5039301;57;1136874;-84
2023/01/13 02:59:15;;;;;;;1.77;1.33;;;;;;;7.84;100.00;99723.86;5137968;57;1136981;-78
2023/01/13 03:04:56;;;;;;;1.90;1.70;;;;;;;7.85;100.00;99713.69;5126567;56;1136735;-85
2023/01/13 03:10:18;;;;;;;2.17;1.70;;;;;;;7.84;100.00;99706.74;5158306;56;1136713;-81
2023/01/13 03:15:28;;;;;;;2.10;1.50;;;;;;;7.85;100.00;99715.00;5136101;56;1137107;-79
2023/01/13 03:20:38;;;;;;;2.47;1.72;;;;;;;7.84;100.00;99706.74;5137348;56;1137017;-77
2023/01/13 03:25:51;;;;;;;2.50;2.30;;;;;;;7.83;100.00;99705.55;5060283;56;1136759;-71
2023/01/13 03:31:05;;;;;;;3.83;1.87;;;;;;;7.81;100.00;99704.34;5120969;56;1136618;-82
2023/01/13 03:36:13;;;;;;;2.20;2.00;;;;;;;7.82;100.00;99699.92;5105648;56;1136902;-75
2023/01/13 03:41:42;;;;;;;4.23;1.93;;;;;;;7.80;100.00;99707.94;5062611;56;1136777;-73
2023/01/13 03:47:00;;;;;;;1.73;1.63;;;;;;;7.84;100.00;99712.48;5154388;56;1136861;-73
2023/01/13 03:52:11;;;;;;;4.03;1.90;;;;;;;7.84;100.00;99713.80;5045657;57;1136614;-75
2023/01/13 03:57:21;;;;;;;3.70;1.75;;;;;;;7.82;100.00;99710.45;4968081;59;1136875;-70
2023/01/13 04:02:40;;;;;;;3.07;1.97;;;;;;;7.85;100.00;99720.75;4860807;59;1136561;-71
2023/01/13 04:07:56;;;;;;;2.00;1.20;;;;;;;7.85;100.00;99721.58;4915741;58;1136618;-78
2023/01/13 04:13:06;;;;;;;1.57;1.47;;;;;;;7.87;100.00;99716.20;4862477;59;1136652;-68
2023/01/13 04:18:25;;;;;;;2.20;1.37;;;;;;;7.86;100.00;99705.31;4876701;58;1139278;-69
2023/01/13 04:23:31;;;;;;;5.80;1.53;;;;;;;7.87;100.00;99701.72;4740487;59;1136772;-80
2023/01/13 04:28:39;;;;;;;3.23;1.93;;;;;;;7.88;100.00;99708.19;4764628;60;1136729;-78
2023/01/13 04:33:45;;;;;;;1.60;1.43;;;;;;;7.88;100.00;99702.08;4803519;60;1136696;-77
2023/01/13 04:38:51;;;;;;;3.90;1.63;;;;;;;7.89;100.00;99704.59;4856912;58;1136963;-73
2023/01/13 04:43:57;;;;;;;1.60;1.50;;;;;;;7.90;100.00;99699.69;4858890;57;1136771;-74
2023/01/13 04:49:04;;;;;;;3.22;1.80;;;;;;;7.88;100.00;99698.97;4815781;58;1136619;-71
2023/01/13 04:54:13;;;;;;;1.55;1.25;;;;;;;7.90;100.00;99698.85;4796805;58;1136955;-72
2023/01/13 04:59:18;;;;;;;2.55;1.00;;;;;;;7.91;100.00;99700.05;4780055;58;1136886;-69
2023/01/13 05:04:25;;;;;;;3.17;1.47;;;;;;;7.88;100.00;99696.34;4833926;58;1136798;-72
2023/01/13 05:09:31;;;;;;;4.37;1.33;;;;;;;7.94;100.00;99712.98;4945052;58;1136666;-77
2023/01/13 05:20:00;;;;;;;1.37;1.17;;;;;;;7.94;100.00;99702.92;4901623;58;1136699;-79
2023/01/13 05:25:21;;;;;;;3.83;1.20;;;;;;;7.93;100.00;99707.83;4920704;58;1180229;-74
2023/01/13 05:30:31;;;;;;;4.17;1.27;;;;;;;7.90;100.00;99715.97;4921526;58;1136682;-82
2023/01/13 05:35:42;;;;;;;3.20;1.40;;;;;;;7.89;100.00;99721.70;4915138;57;1136746;-74
2023/01/13 05:46:13;;;;;;;6.17;2.42;;;;;;;7.88;100.00;99713.45;4955043;57;1136850;-81
2023/01/13 05:51:24;;;;;;;1.57;1.47;;;;;;;7.87;100.00;99719.67;5063115;56;1136672;-75
2023/01/13 05:56:26;;;;;;;1.87;1.67;;;;;;;7.85;100.00;99722.91;5062447;56;1136541;-71
2023/01/13 06:01:32;;;;;;;2.27;1.60;;;;;;;7.84;100.00;99715.12;5051735;56;1136702;-74
2023/01/13 06:06:38;;;;;;;4.07;1.67;;;;;;;7.84;100.00;99714.64;4969507;57;1137056;-74
2023/01/13 06:11:45;;;;;;;1.70;1.50;;;;;;;7.84;100.00;99723.02;4977789;57;1136705;-77
2023/01/13 06:16:51;;;;;;;2.67;1.90;;;;;;;7.83;100.00;99722.66;5002421;57;1136605;-76
2023/01/13 06:21:58;;;;;;;4.63;1.20;;;;;;;7.83;100.00;99724.81;5070037;56;1136716;-82
2023/01/13 06:27:06;;;;;;;4.60;1.53;;;;;;;7.86;100.00;99732.95;5090182;56;1136686;-70
2023/01/13 06:32:19;;;;;;;1.42;1.20;;;;;;;7.86;100.00;99725.89;5110524;56;1136863;-80
2023/01/13 06:37:25;;;;;;;2.33;1.37;;;;;;;7.87;100.00;99732.00;5054501;56;1136825;-72
2023/01/13 06:48:00;;;;;;;2.60;1.50;;;;;;;7.89;100.00;99741.93;4946293;57;1136760;-76
2023/01/13 06:53:07;;;;;;;2.10;1.98;;;;;;;7.88;100.00;99738.94;4945995;57;1137142;-77
2023/01/13 06:58:14;;;;;;;2.75;2.50;;;;;;;7.90;100.00;99729.97;4976238;56;1136627;-76
2023/01/13 07:03:20;;;;;;;3.12;1.90;;;;;;;7.92;100.00;99733.80;4983997;56;1136691;-82
2023/01/13 07:08:27;;;;;;;2.87;2.60;;;;;;;7.92;100.00;99743.02;4995479;57;1136939;-75
2023/01/13 07:18:59;;;;;;;2.50;2.10;;;;;;;7.87;100.00;99739.41;4994748;57;1136746;-80
2023/01/13 07:24:05;;;;;;;6.03;2.40;;;;;;;7.82;100.00;99739.41;5052217;56;1136740;-71
2023/01/13 07:29:11;;;;;;;6.92;2.90;;;;;;;7.76;100.00;99749.48;5083640;56;1136660;-76
2023/01/13 07:34:17;;;;;;;2.97;2.13;;;;;;;7.75;100.00;99747.80;5064068;56;1136927;-68
2023/01/13 07:39:24;;;;;;;5.72;2.02;;;;;;;7.75;100.00;99752.23;5063696;56;1136779;-75
2023/01/13 07:44:29;;;;;;;4.70;2.10;;;;;;;7.74;100.00;99747.92;5083575;56;1136692;-77
2023/01/13 07:49:35;;;;;;;2.87;2.03;;;;;;;7.72;100.00;99758.56;5063721;56;1136629;-79
2023/01/13 07:54:41;;;;;;;3.13;2.43;;;;;;;7.73;100.00;99764.67;4926480;56;1136765;-75
2023/01/13 07:59:47;;;;;;;4.00;2.00;;;;;;;7.73;100.00;99762.88;4912439;58;1136645;-76
2023/01/13 08:04:53;;;;;;;6.97;2.27;;;;;;;7.74;100.00;99766.34;4917673;58;1136768;-75
2023/01/13 08:09:59;;;;;;;4.30;2.70;;;;;;;7.73;100.00;99756.77;4975778;56;1136574;-78
2023/01/13 08:15:08;;;;;;;2.37;2.10;;;;;;;7.75;100.00;99763.59;4981770;55;1136701;-75
2023/01/13 08:20:13;;;;;;;3.22;2.00;;;;;;;7.76;100.00;99771.02;4968714;56;1136728;-78
2023/01/13 08:25:19;;;;;;;4.85;2.33;;;;;;;7.78;100.00;99778.80;4934984;58;1136911;-77
2023/01/13 08:30:25;;;;;;;6.00;2.13;;;;;;;7.80;100.00;99789.54;4907483;58;1136760;-72
2023/01/13 08:35:31;;;;;;;5.97;3.00;;;;;;;7.80;100.00;99788.22;4926274;58;1136948;-71
2023/01/13 08:40:39;;;;;;;2.87;1.80;;;;;;;7.80;100.00;99794.80;4906852;58;1136691;-82
2023/01/13 08:45:45;;;;;;;4.83;2.22;;;;;;;7.82;100.00;99793.38;4972641;57;1136845;-76
2023/01/13 08:50:52;;;;;;;4.70;2.17;;;;;;;7.85;100.00;99787.87;5030082;57;1136757;-73
2023/01/13 08:55:57;;;;;;;2.10;1.87;;;;;;;7.91;100.00;99790.88;5010985;56;1136667;-78
2023/01/13 09:01:08;;;;;;;3.07;2.00;;;;;;;7.96;100.00;99790.50;5010321;57;1136840;-71
2023/01/13 09:06:14;;;;;;;4.60;2.40;;;;;;;8.01;100.00;99809.42;4958083;57;1137044;-75
2023/01/13 09:16:48;;;;;;;5.03;2.50;;;;;;;8.13;100.00;99801.86;4929902;58;1136818;-76
2023/01/13 09:21:55;;;;;;;4.22;2.52;;;;;;;8.19;100.00;99787.39;4971895;56;1136740;-74
2023/01/13 09:27:01;;;;;;;3.47;1.77;;;;;;;8.31;100.00;99794.31;5000863;56;1136696;-79
2023/01/13 09:32:09;;;;;;;4.77;2.40;;;;;;;8.36;100.00;99800.09;4981472;56;1136685;-79
2023/01/13 09:37:15;;;;;;;4.28;2.62;;;;;;;8.39;100.00;99793.27;5015391;56;1136797;-76
2023/01/13 09:48:24;;;;;;;3.08;2.37;;;;;;;8.48;100.00;99792.99;5048928;56;1136605;-75
2023/01/13 09:53:35;;;;;;;5.70;2.77;;;;;;;8.52;100.00;99789.16;4912274;57;1136657;-73
2023/01/13 09:58:42;;;;;;;5.87;3.33;;;;;;;8.55;100.00;99784.97;4939151;57;1136771;-72
2023/01/13 10:03:49;;;;;;;2.93;2.50;;;;;;;8.58;100.00;99783.38;4967259;57;1136985;-76
2023/01/13 10:08:54;;;;;;;3.00;1.93;;;;;;;8.61;100.00;99780.49;4947971;57;1136599;-78
2023/01/13 10:14:05;;;;;;;6.37;3.00;;;;;;;8.61;100.00;99780.02;4947970;57;1136672;-76
2023/01/13 10:19:18;;;;;;;6.03;3.73;;;;;;;8.62;100.00;99771.63;4974861;57;1136840;-81
2023/01/13 10:24:51;;;;;;;6.63;2.90;;;;;;;8.66;100.00;99767.79;5024419;57;1136630;-69
2023/01/13 10:29:58;;;;;;;5.03;3.20;;;;;;;8.69;100.00;99773.66;4994995;57;1136895;-78
2023/01/13 10:35:04;;;;;;;10.90;7.67;;;;;;;8.71;100.00;99767.75;5025086;57;1136650;-71
2023/01/13 10:40:15;;;;;;;10.44;4.76;;;;;;;8.77;100.00;99769.05;4981950;57;1138708;-73
2023/01/13 10:45:25;;;;;;;5.67;3.62;;;;;;;8.80;100.00;99773.60;4979376;56;1138906;-73
2023/01/13 10:50:34;;;;;;;4.57;2.53;;;;;;;8.86;100.00;99773.56;5062690;56;1136887;-76
2023/01/13 10:55:40;;;;;;;8.27;3.57;;;;;;;8.90;100.00;99770.20;5034606;56;1136776;-78
2023/01/13 11:00:47;;;;;;;4.73;2.83;;;;;;;8.95;100.00;99762.75;4969852;58;1136828;-73
2023/01/13 11:06:00;;;;;;;4.90;3.00;;;;;;;8.96;100.00;99767.91;5017723;56;1136758;-70
2023/01/13 11:11:26;;;;;;;10.00;3.07;;;;;;;9.01;100.00;99765.70;5032013;56;1136516;-71
2023/01/13 11:16:35;;;;;;;20.57;9.07;;;;;;;9.03;100.00;99759.82;5028879;56;1138987;-75
2023/01/13 11:22:12;;;;;;;10.87;5.50;;;;;;;9.03;100.00;99760.30;5022557;56;1138982;-74
2023/01/13 11:27:47;;;;;;;3.67;2.77;;;;;;;9.03;100.00;99746.63;5026289;57;1138938;-76
2023/01/13 11:33:03;;;;;;;3.50;2.85;;;;;;;9.03;100.00;99744.48;5001967;57;1136633;-73
2023/01/13 11:38:17;;;;;;;5.07;2.43;;;;;;;8.99;100.00;99748.36;5022727;57;1136572;-80
2023/01/13 11:44:11;;;;;;;5.05;2.72;;;;;;;8.97;100.00;99755.56;5005390;57;1136588;-78
2023/01/13 11:49:32;;;;;;;6.83;2.95;;;;;;;8.97;100.00;99759.03;4945276;57;1136853;-72
2023/01/13 11:55:09;;;;;;;11.07;4.80;;;;;;;8.93;100.00;99749.69;5020698;56;1136735;-75
2023/01/13 12:00:38;;;;;;;8.97;3.90;;;;;;;8.91;100.00;99748.14;5030609;56;1138800;-76
2023/01/13 12:05:58;;;;;;;10.50;4.30;;;;;;;8.89;100.00;99756.66;4996029;56;1136810;-74
2023/01/13 12:12:31;;;;;;;7.90;4.70;;;;;;;8.80;100.00;99768.33;5071221;56;1138741;-72
2023/01/13 12:16:50;;;;;;;7.60;3.77;;;;;;;8.69;100.00;99762.27;4986850;57;1136881;-86
2023/01/13 12:22:17;;;;;;;33.23;14.87;;;;;;;8.59;100.00;99763.97;4995695;57;1136778;-75
2023/01/13 12:27:45;;;;;;;8.23;3.85;;;;;;;8.51;100.00;99777.78;4996246;57;1140809;-77
2023/01/13 12:32:54;;;;;;;10.63;4.43;;;;;;;8.43;100.00;99763.05;4978114;57;1136923;-82
2023/01/13 12:38:15;;;;;;;10.30;2.40;;;;;;;8.36;100.00;99765.36;5011754;57;1138786;-83
2023/01/13 12:48:57;;;;;;;10.20;3.17;;;;;;;8.23;100.00;99765.95;5059951;56;1140962;-70
2023/01/13 12:54:23;;;;;;;6.50;2.40;;;;;;;8.19;100.00;99764.52;5028600;56;1138725;-70
2023/01/13 12:59:33;;;;;;;4.47;2.02;;;;;;;8.13;100.00;99776.37;4944659;57;1136682;-78
2023/01/13 13:04:51;;;;;;;11.00;5.17;;;;;;;8.11;100.00;99773.48;4859860;57;1136578;-76
2023/01/13 13:10:20;;;;;;;15.57;5.00;;;;;;;8.11;100.00;99767.75;4839107;59;1139200;-80
2023/01/13 13:15:34;;;;;;;10.25;4.50;;;;;;;8.11;100.00;99766.91;4954056;58;1138704;-77
2023/01/13 13:21:10;;;;;;;14.97;5.53;;;;;;;8.15;100.00;99752.55;4922430;57;1138759;-81
2023/01/13 13:26:32;;;;;;;28.07;8.75;;;;;;;8.16;100.00;99748.95;4944162;57;1138768;-77
2023/01/13 13:32:05;;;;;;;11.20;4.85;;;;;;;8.13;100.00;99731.59;4959183;57;1138773;-74
2023/01/13 13:37:30;;;;;;;10.13;5.27;;;;;;;8.14;100.00;99725.84;4963309;57;1138849;-74
2023/01/13 13:48:26;;;;;;;3.10;2.35;;;;;;;8.22;100.00;99712.08;4855409;58;1136937;-70
2023/01/13 13:53:39;;;;;;;12.27;4.60;;;;;;;8.20;100.00;99737.22;4648989;59;1136860;-77
2023/01/13 13:58:46;;;;;;;14.87;6.53;;;;;;;8.20;100.00;99737.22;4570403;60;1138944;-75
2023/01/13 14:04:11;;;;;;;19.00;7.63;;;;;;;8.19;100.00;99753.14;4557027;62;1138860;-81
2023/01/13 14:09:19;;;;;;;11.70;5.90;;;;;;;8.19;100.00;99757.09;4491891;62;1138903;-79
2023/01/13 14:14:25;;;;;;;5.40;3.80;;;;;;;8.20;100.00;99773.27;4491980;62;1138900;-73
2023/01/13 14:19:43;;;;;;;8.35;3.87;;;;;;;8.19;100.00;99783.44;4702582;60;1136754;-76
2023/01/13 14:24:54;;;;;;;12.50;6.15;;;;;;;8.18;100.00;99787.86;4562487;62;1136748;-77
2023/01/13 14:30:00;;;;;;;6.00;3.05;;;;;;;8.17;100.00;99786.66;4637919;60;1139050;-75
2023/01/13 14:35:11;;;;;;;17.13;7.90;;;;;;;8.14;100.00;99802.23;4711059;61;1136762;-77
2023/01/13 14:40:43;;;;;;;24.47;12.47;;;;;;;8.13;100.00;99801.86;4914251;58;1138762;-77
2023/01/13 14:46:03;;;;;;;24.03;11.93;;;;;;;8.12;100.00;99798.88;4880820;58;1140981;-80
2023/01/13 14:51:16;;;;;;;14.30;7.80;;;;;;;8.11;100.00;99804.62;4864592;58;1140959;-78
2023/01/13 14:56:43;;;;;;;;;;;;;;;8.11;100.00;99810.36;4884602;58;1138938;-77
2023/01/13 15:01:49;;;;;;;11.20;6.10;;;;;;;8.08;100.00;99797.46;4956088;57;974182;-80
2023/01/13 15:06:57;;;;;;;11.22;4.60;;;;;;;8.03;100.00;99829.89;4984640;57;1136794;-81
2023/01/13 15:12:25;;;;;;;7.53;4.87;;;;;;;7.98;100.00;99824.13;5023099;57;1138891;-79
2023/01/13 15:17:32;;;;;;;10.15;5.10;;;;;;;7.97;100.00;99826.41;4890163;58;1136636;-69
2023/01/13 15:22:37;;;;;;;9.13;4.10;;;;;;;7.97;100.00;99827.25;4868926;59;1138717;-78
2023/01/13 15:27:49;;;;;;;6.93;3.93;;;;;;;7.97;100.00;99829.04;4849878;59;1136702;-78
2023/01/13 15:32:55;;;;;;;19.80;6.93;;;;;;;7.95;100.00;99841.00;4884795;59;1136668;-75
2023/01/13 15:38:01;;;;;;;26.43;19.80;;;;;;;7.94;100.00;99832.77;4831937;59;1138801;-78
2023/01/13 15:48:32;;;;;;;8.20;3.83;;;;;;;7.89;100.00;99864.35;4857913;58;1136735;-72
2023/01/13 15:53:39;;;;;;;14.53;5.73;;;;;;;7.87;100.00;99876.80;4827026;58;1136684;-72
2023/01/13 15:58:46;;;;;;;9.88;5.60;;;;;;;7.81;100.00;99882.03;4869726;58;1138786;-78
2023/01/13 16:03:52;;;;;;;20.13;6.60;;;;;;;7.75;100.00;99887.79;4777852;59;1136641;-75
2023/01/13 16:08:58;;;;;;;18.37;4.20;;;;;;;7.69;100.00;99885.61;4980927;57;1138789;-79
2023/01/13 16:14:04;;;;;;;9.83;3.60;;;;;;;7.63;100.00;99888.72;4976405;56;1138809;-76
2023/01/13 16:19:12;;;;;;;10.73;3.93;;;;;;;7.55;100.00;99882.70;5016982;57;1136624;-77
2023/01/13 16:24:18;;;;;;;20.97;9.23;;;;;;;7.49;100.00;99887.09;5021120;57;1138752;-78
2023/01/13 16:29:24;;;;;;;37.23;11.38;;;;;;;7.43;100.00;99896.78;4985650;57;1138847;-71
2023/01/13 16:34:32;;;;;;;12.07;6.63;;;;;;;7.35;100.00;99904.39;5007387;57;1140894;-81
2023/01/13 16:39:37;;;;;;;12.00;6.00;;;;;;;7.26;100.00;99915.13;4888427;58;1138945;-74
2023/01/13 16:44:43;;;;;;;61.83;27.20;;;;;;;7.20;100.00;99926.08;4835339;58;1138710;-75
2023/01/13 16:49:48;;;;;;;14.47;4.12;;;;;;;7.12;100.00;99934.18;4858722;58;1141026;-74
2023/01/13 16:54:54;;;;;;;18.47;9.20;;;;;;;7.10;100.00;99947.44;4812207;59;1138967;-76
2023/01/13 17:00:04;;;;;;;28.23;12.93;;;;;;;7.04;100.00;99949.18;4984414;57;1138967;-75
2023/01/13 17:05:12;;;;;;;28.57;10.43;;;;;;;7.00;100.00;99947.75;5020097;57;1141034;-72
2023/01/13 17:10:22;;;;;;;14.93;6.27;;;;;;;6.96;100.00;99946.28;5077262;56;1140883;-78
2023/01/13 17:15:28;;;;;;;78.72;33.88;;;;;;;6.89;100.00;99951.12;5032375;56;1138743;-79
2023/01/13 17:20:34;;;;;;;37.27;13.73;;;;;;;6.85;100.00;99964.14;5032104;57;1140813;-77
2023/01/13 17:25:39;;;;;;;22.77;11.63;;;;;;;6.80;100.00;99958.83;5042089;57;1140846;-73
2023/01/13 17:30:45;;;;;;;13.80;6.30;;;;;;;6.75;100.00;99958.30;5052291;57;1140991;-73
2023/01/13 17:35:51;;;;;;;21.90;6.23;;;;;;;6.70;100.00;99950.77;4795515;59;1138934;-75
2023/01/13 17:41:03;;;;;;;15.50;6.95;;;;;;;6.69;100.00;99959.12;4789214;59;1138897;-71
2023/01/13 17:46:11;;;;;;;46.77;17.10;;;;;;;6.64;100.00;99948.56;4982664;57;1139046;-78
2023/01/13 17:51:19;;;;;;;18.87;7.47;;;;;;;6.63;100.00;99951.66;4813259;59;1262934;-76
2023/01/13 17:56:26;;;;;;;22.10;9.18;;;;;;;6.61;100.00;99943.52;4851018;58;1138678;-76
2023/01/13 18:01:32;;;;;;;24.47;8.70;;;;;;;6.56;100.00;99940.39;4901308;58;1138801;-73
2023/01/13 18:06:38;;;;;;;13.60;6.53;;;;;;;6.51;100.00;99945.96;4867001;58;1138945;-80
2023/01/13 18:11:45;;;;;;;20.70;9.55;;;;;;;6.48;100.00;99944.02;4656039;60;1138793;-78
2023/01/13 18:16:51;;;;;;;19.23;8.10;;;;;;;6.43;100.00;99945.64;4896221;58;1138717;-72
2023/01/13 18:27:26;;;;;;;22.15;9.88;;;;;;;6.37;100.00;99950.02;4820614;58;1140900;-73
2023/01/13 18:32:33;;;;;;;22.62;10.35;;;;;;;6.35;100.00;99960.63;4813854;58;1139007;-74
2023/01/13 18:37:41;;;;;;;34.27;14.67;;;;;;;6.36;100.00;99961.47;4701893;59;1141118;-81
2023/01/13 18:42:50;;;;;;;16.23;6.37;;;;;;;6.34;100.00;99960.73;4711291;59;1140875;-79
2023/01/13 18:48:00;;;;;;;16.07;6.00;;;;;;;6.38;100.00;99966.15;4800961;59;1138656;-77
2023/01/13 18:53:06;;;;;;;10.80;4.70;;;;;;;6.41;100.00;99970.36;4733309;59;1138801;-75
2023/01/13 18:58:12;;;;;;;12.10;5.67;;;;;;;6.42;100.00;99974.16;4702812;60;1138715;-79
2023/01/13 19:03:23;;;;;;;17.73;7.77;;;;;;;6.45;100.00;99977.05;4721352;60;1138808;-76
2023/01/13 19:08:29;;;;;;;18.80;7.50;;;;;;;6.46;100.00;99988.77;4770574;59;1139060;-76
2023/01/13 19:13:36;;;;;;;9.05;4.47;;;;;;;6.45;100.00;99988.88;4903597;57;1138806;-71
2023/01/13 19:18:42;;;;;;;15.13;6.53;;;;;;;6.45;100.00;99994.13;4983766;57;1136755;-73
2023/01/13 19:23:48;;;;;;;20.50;7.63;;;;;;;6.44;100.00;100005.11;5035120;57;1138707;-78
2023/01/13 19:28:54;;;;;;;37.53;11.60;;;;;;;6.43;100.00;99998.64;5023693;57;1140852;-72
2023/01/13 19:33:59;;;;;;;21.40;7.40;;;;;;;6.41;100.00;100006.66;4955994;58;1140855;-82
2023/01/13 19:39:06;;;;;;;20.10;8.63;;;;;;;6.41;100.00;100009.75;4996761;57;1141223;-76
2023/01/13 19:49:37;;;;;;;15.70;4.33;;;;;;;6.36;100.00;100021.88;4990794;57;1138744;-80
2023/01/13 19:54:48;;;;;;;21.37;8.08;;;;;;;6.37;100.00;100024.03;4994189;57;1141042;-74
2023/01/13 19:59:55;;;;;;;14.83;5.47;;;;;;;6.35;100.00;100026.29;5016764;57;1141017;-80
2023/01/13 20:05:05;;;;;;;10.50;4.13;;;;;;;6.29;100.00;100039.83;4992522;57;1141091;-79
2023/01/13 20:10:12;;;;;;;13.30;4.67;;;;;;;6.24;100.00;100034.06;5012984;57;1140816;-72
2023/01/13 20:15:19;;;;;;;13.20;5.20;;;;;;;6.20;100.00;100047.49;5008419;57;1141040;-73
2023/01/13 20:20:27;;;;;;;17.37;6.10;;;;;;;6.16;100.00;100053.88;5000538;57;1140966;-79
2023/01/13 20:25:33;;;;;;;11.83;4.50;;;;;;;6.12;100.00;100057.17;4981826;56;1140998;-82
2023/01/13 20:30:40;;;;;;;12.23;5.05;;;;;;;6.08;100.00;100066.22;5004949;57;1140842;-72
2023/01/13 20:35:46;;;;;;;13.83;5.53;;;;;;;6.04;100.00;100073.92;4992852;57;1140999;-75
2023/01/13 20:46:13;;;;;;;15.40;4.60;;;;;;;6.00;100.00;100075.06;4931413;57;1138963;-81
2023/01/13 20:51:19;;;;;;;9.47;3.60;;;;;;;5.98;100.00;100084.81;4988858;57;1141039;-78
2023/01/13 20:56:25;;;;;;;10.43;3.50;;;;;;;5.93;100.00;100086.45;5008139;57;1137217;-75
2023/01/13 21:01:31;;;;;;;6.65;3.02;;;;;;;5.94;100.00;100089.91;4995575;57;1140979;-78
2023/01/13 21:06:37;;;;;;;9.28;3.17;;;;;;;5.95;100.00;100095.54;4976734;57;1136771;-71
2023/01/13 21:22:33;;;;;;;10.55;3.42;;;;;;;5.88;100.00;100095.08;4890758;57;1140966;-71
2023/01/13 21:27:39;;;;;;;10.47;3.93;;;;;;;5.88;100.00;100095.08;4988193;57;1140910;-75
2023/01/13 21:32:46;;;;;;;8.75;3.27;;;;;;;5.84;100.00;100100.12;4995581;57;1141056;-82
2023/01/13 21:37:52;;;;;;;10.53;3.57;;;;;;;5.82;100.00;100088.03;5034273;57;1138656;-76
2023/01/13 21:48:23;;;;;;;12.47;2.80;;;;;;;5.78;100.00;100112.34;4942912;58;1140966;-75
2023/01/13 21:53:29;;;;;;;14.83;3.30;;;;;;;5.73;100.00;100115.72;4959002;58;1140984;-71
2023/01/13 21:58:36;;;;;;;4.53;2.37;;;;;;;5.71;100.00;100102.32;5027772;57;1141055;-81
2023/01/13 22:09:06;;;;;;;15.58;3.80;;;;;;;5.70;100.00;100115.06;5027337;57;1138984;-77
2023/01/13 22:14:12;;;;;;;15.73;3.93;;;;;;;5.68;100.00;100119.56;4867682;58;1140856;-75
2023/01/13 22:19:18;;;;;;;17.03;3.43;;;;;;;5.64;100.00;100113.23;4657402;60;1140822;-81
2023/01/13 22:24:25;;;;;;;6.47;2.20;;;;;;;5.62;100.00;100114.26;4789810;59;1140910;-78
2023/01/13 22:29:31;;;;;;;9.18;3.35;;;;;;;5.60;100.00;100113.04;4812938;58;1136694;-81
2023/01/13 22:34:37;;;;;;;12.07;4.00;;;;;;;5.60;100.00;100112.20;4782173;58;1136687;-83
2023/01/13 22:39:44;;;;;;;10.87;3.10;;;;;;;5.58;100.00;100118.01;4645478;61;1140889;-78
2023/01/13 22:44:50;;;;;;;13.83;3.33;;;;;;;5.57;100.00;100124.19;4768205;59;1141061;-77
2023/01/13 22:49:56;;;;;;;14.73;3.23;;;;;;;5.53;100.00;100130.56;4763792;59;1138640;-76
2023/01/13 22:55:03;;;;;;;8.40;2.57;;;;;;;5.52;100.00;100140.20;4729679;60;1138697;-84
2023/01/13 23:00:13;;;;;;;10.20;3.97;;;;;;;5.48;100.00;100137.89;4652239;61;1136564;-77
2023/01/13 23:05:18;;;;;;;8.30;1.63;;;;;;;5.51;100.00;100142.92;4758928;60;1138933;-78
2023/01/13 23:10:24;;;;;;;9.98;1.92;;;;;;;5.51;100.00;100150.33;4825092;60;1136668;-76
2023/01/13 23:15:30;;;;;;;2.85;1.65;;;;;;;5.54;100.00;100146.67;4775511;60;1137121;-77
2023/01/13 23:20:36;;;;;;;10.78;2.80;;;;;;;5.53;100.00;100148.92;4986000;57;1136619;-81
2023/01/13 23:25:52;;;;;;;3.47;2.00;;;;;;;5.51;100.00;100143.77;4988908;57;1138777;-76
2023/01/13 23:30:59;;;;;;;11.43;2.40;;;;;;;5.51;100.00;100146.86;4989223;57;1136755;-76
2023/01/13 23:36:08;;;;;;;7.90;2.47;;;;;;;5.51;100.00;100163.91;4981461;57;1141049;-76
2023/01/13 23:41:21;;;;;;;7.87;1.90;;;;;;;5.48;100.00;100157.09;4924394;58;1136849;-78
2023/01/13 23:46:32;;;;;;;4.93;1.60;;;;;;;5.47;100.00;100155.41;4867458;58;1136858;-68
2023/01/13 23:51:38;;;;;;;4.70;2.10;;;;;;;5.49;100.00;100163.19;4838236;59;1136644;-75
2023/01/13 23:56:44;;;;;;;9.10;1.87;;;;;;;5.50;100.00;100160.94;4819319;59;1138767;-84
